sensor_id;sensor_type;location;lat;lon;timestamp;P1;durP1;ratioP1;P2;durP2;ratioP2
52564;SDS011;38460;53.106;7.004;2022-09-13T00:01:45;15.60;;;11.70;;
52564;SDS011;38460;53.106;7.004;2022-09-13T00:04:11;16.25;;;12.13;;
52564;SDS011;38460;53.106;7.004;2022-09-13T00:06:37;15.38;;;12.52;;
52564;SDS011;38460;53.106;7.004;2022-09-13T00:09:03;15.05;;;11.32;;
52564;SDS011;38460;53.106;7.004;2022-09-13T00:11:29;14.95;;;11.25;;
52564;SDS011;38460;53.106;7.004;2022-09-13T00:13:57;16.27;;;12.65;;
52564;SDS011;38460;53.106;7.004;2022-09-13T00:16:24;17.42;;;12.20;;
52564;SDS011;38460;53.106;7.004;2022-09-13T00:18:52;15.00;;;12.00;;
52564;SDS011;38460;53.106;7.004;2022-09-13T00:21:19;18.52;;;13.27;;
52564;SDS011;38460;53.106;7.004;2022-09-13T00:23:47;16.17;;;11.23;;
52564;SDS011;38460;53.106;7.004;2022-09-13T00:26:16;15.57;;;11.77;;
52564;SDS011;38460;53.106;7.004;2022-09-13T00:28:50;17.95;;;12.82;;
52564;SDS011;38460;53.106;7.004;2022-09-13T00:31:17;16.42;;;12.30;;
52564;SDS011;38460;53.106;7.004;2022-09-13T00:33:44;15.85;;;11.98;;
52564;SDS011;38460;53.106;7.004;2022-09-13T00:36:10;15.07;;;11.30;;
52564;SDS011;38460;53.106;7.004;2022-09-13T00:38:37;16.48;;;11.73;;
52564;SDS011;38460;53.106;7.004;2022-09-13T00:41:05;14.65;;;11.07;;
52564;SDS011;38460;53.106;7.004;2022-09-13T00:46:15;15.93;;;11.85;;
52564;SDS011;38460;53.106;7.004;2022-09-13T00:51:48;16.08;;;11.50;;
52564;SDS011;38460;53.106;7.004;2022-09-13T00:54:18;16.42;;;11.40;;
52564;SDS011;38460;53.106;7.004;2022-09-13T00:56:49;14.95;;;10.45;;
52564;SDS011;38460;53.106;7.004;2022-09-13T00:59:20;16.15;;;11.57;;
52564;SDS011;38460;53.106;7.004;2022-09-13T01:01:54;14.90;;;10.85;;
52564;SDS011;38460;53.106;7.004;2022-09-13T01:04:21;13.98;;;10.77;;
52564;SDS011;38460;53.106;7.004;2022-09-13T01:06:51;16.70;;;11.88;;
52564;SDS011;38460;53.106;7.004;2022-09-13T01:09:21;14.60;;;10.50;;
52564;SDS011;38460;53.106;7.004;2022-09-13T01:11:48;16.10;;;11.95;;
52564;SDS011;38460;53.106;7.004;2022-09-13T01:14:29;16.95;;;11.32;;
52564;SDS011;38460;53.106;7.004;2022-09-13T01:16:56;17.52;;;11.73;;
52564;SDS011;38460;53.106;7.004;2022-09-13T01:19:22;16.50;;;12.20;;
52564;SDS011;38460;53.106;7.004;2022-09-13T01:43:03;14.73;;;10.98;;
52564;SDS011;38460;53.106;7.004;2022-09-13T01:45:49;14.65;;;11.20;;
52564;SDS011;38460;53.106;7.004;2022-09-13T01:51:15;15.65;;;10.70;;
52564;SDS011;38460;53.106;7.004;2022-09-13T01:56:26;14.40;;;9.80;;
52564;SDS011;38460;53.106;7.004;2022-09-13T01:59:13;17.45;;;10.45;;
52564;SDS011;38460;53.106;7.004;2022-09-13T02:02:05;18.20;;;10.82;;
52564;SDS011;38460;53.106;7.004;2022-09-13T02:04:51;12.52;;;9.27;;
52564;SDS011;38460;53.106;7.004;2022-09-13T02:07:30;15.57;;;9.05;;
52564;SDS011;38460;53.106;7.004;2022-09-13T02:10:12;13.23;;;10.05;;
52564;SDS011;38460;53.106;7.004;2022-09-13T02:12:44;13.75;;;9.77;;
52564;SDS011;38460;53.106;7.004;2022-09-13T02:15:16;12.32;;;9.88;;
52564;SDS011;38460;53.106;7.004;2022-09-13T02:20:50;13.18;;;8.10;;
52564;SDS011;38460;53.106;7.004;2022-09-13T02:23:20;10.90;;;8.52;;
52564;SDS011;38460;53.106;7.004;2022-09-13T02:25:50;11.70;;;8.93;;
52564;SDS011;38460;53.106;7.004;2022-09-13T02:28:21;13.43;;;8.95;;
52564;SDS011;38460;53.106;7.004;2022-09-13T02:30:52;10.65;;;7.68;;
52564;SDS011;38460;53.106;7.004;2022-09-13T02:33:29;17.23;;;10.20;;
52564;SDS011;38460;53.106;7.004;2022-09-13T02:36:00;13.98;;;10.32;;
52564;SDS011;38460;53.106;7.004;2022-09-13T02:38:37;13.45;;;8.93;;
52564;SDS011;38460;53.106;7.004;2022-09-13T02:41:26;16.20;;;9.85;;
52564;SDS011;38460;53.106;7.004;2022-09-13T02:44:10;14.52;;;9.35;;
52564;SDS011;38460;53.106;7.004;2022-09-13T02:49:29;12.48;;;8.25;;
52564;SDS011;38460;53.106;7.004;2022-09-13T02:58:38;13.05;;;9.30;;
52564;SDS011;38460;53.106;7.004;2022-09-13T03:01:11;11.10;;;8.25;;
52564;SDS011;38460;53.106;7.004;2022-09-13T03:03:37;11.00;;;8.40;;
52564;SDS011;38460;53.106;7.004;2022-09-13T03:06:03;14.48;;;9.27;;
52564;SDS011;38460;53.106;7.004;2022-09-13T03:08:29;14.95;;;10.30;;
52564;SDS011;38460;53.106;7.004;2022-09-13T03:11:01;12.20;;;9.40;;
52564;SDS011;38460;53.106;7.004;2022-09-13T03:24:27;14.98;;;10.25;;
52564;SDS011;38460;53.106;7.004;2022-09-13T03:32:35;14.68;;;11.10;;
52564;SDS011;38460;53.106;7.004;2022-09-13T03:35:19;19.02;;;11.60;;
52564;SDS011;38460;53.106;7.004;2022-09-13T03:43:24;23.23;;;13.65;;
52564;SDS011;38460;53.106;7.004;2022-09-13T03:46:04;21.23;;;13.10;;
52564;SDS011;38460;53.106;7.004;2022-09-13T03:48:53;19.30;;;13.80;;
52564;SDS011;38460;53.106;7.004;2022-09-13T03:51:20;18.90;;;13.70;;
52564;SDS011;38460;53.106;7.004;2022-09-13T03:53:49;21.60;;;14.07;;
52564;SDS011;38460;53.106;7.004;2022-09-13T03:56:22;20.65;;;15.95;;
52564;SDS011;38460;53.106;7.004;2022-09-13T03:58:48;19.85;;;13.15;;
52564;SDS011;38460;53.106;7.004;2022-09-13T04:01:18;21.80;;;15.38;;
52564;SDS011;38460;53.106;7.004;2022-09-13T04:03:46;22.42;;;15.13;;
52564;SDS011;38460;53.106;7.004;2022-09-13T04:06:12;19.85;;;14.45;;
52564;SDS011;38460;53.106;7.004;2022-09-13T04:08:37;23.08;;;15.30;;
52564;SDS011;38460;53.106;7.004;2022-09-13T04:11:03;18.25;;;13.27;;
52564;SDS011;38460;53.106;7.004;2022-09-13T04:13:29;15.77;;;11.77;;
52564;SDS011;38460;53.106;7.004;2022-09-13T04:15:59;13.38;;;10.77;;
52564;SDS011;38460;53.106;7.004;2022-09-13T04:18:26;13.67;;;10.10;;
52564;SDS011;38460;53.106;7.004;2022-09-13T04:20:53;11.55;;;7.80;;
52564;SDS011;38460;53.106;7.004;2022-09-13T04:23:20;11.77;;;8.88;;
52564;SDS011;38460;53.106;7.004;2022-09-13T04:25:47;11.18;;;8.07;;
52564;SDS011;38460;53.106;7.004;2022-09-13T04:28:12;8.70;;;6.93;;
52564;SDS011;38460;53.106;7.004;2022-09-13T04:30:38;9.32;;;6.60;;
52564;SDS011;38460;53.106;7.004;2022-09-13T04:33:07;13.75;;;8.27;;
52564;SDS011;38460;53.106;7.004;2022-09-13T04:35:33;9.88;;;7.32;;
52564;SDS011;38460;53.106;7.004;2022-09-13T04:37:59;9.90;;;6.68;;
52564;SDS011;38460;53.106;7.004;2022-09-13T04:40:24;11.05;;;7.13;;
52564;SDS011;38460;53.106;7.004;2022-09-13T04:42:50;10.02;;;5.95;;
52564;SDS011;38460;53.106;7.004;2022-09-13T04:45:16;6.03;;;3.88;;
52564;SDS011;38460;53.106;7.004;2022-09-13T04:47:42;8.15;;;4.53;;
52564;SDS011;38460;53.106;7.004;2022-09-13T04:50:08;7.75;;;4.93;;
52564;SDS011;38460;53.106;7.004;2022-09-13T04:52:34;8.25;;;5.35;;
52564;SDS011;38460;53.106;7.004;2022-09-13T04:55:00;7.47;;;4.05;;
52564;SDS011;38460;53.106;7.004;2022-09-13T04:57:27;10.73;;;5.80;;
52564;SDS011;38460;53.106;7.004;2022-09-13T04:59:53;10.02;;;5.88;;
52564;SDS011;38460;53.106;7.004;2022-09-13T05:02:19;12.65;;;6.78;;
52564;SDS011;38460;53.106;7.004;2022-09-13T05:04:44;10.90;;;7.00;;
52564;SDS011;38460;53.106;7.004;2022-09-13T05:07:10;11.45;;;7.80;;
52564;SDS011;38460;53.106;7.004;2022-09-13T05:09:36;11.55;;;7.47;;
52564;SDS011;38460;53.106;7.004;2022-09-13T05:12:02;11.13;;;7.38;;
52564;SDS011;38460;53.106;7.004;2022-09-13T05:14:28;11.68;;;7.82;;
52564;SDS011;38460;53.106;7.004;2022-09-13T05:16:53;10.35;;;7.22;;
52564;SDS011;38460;53.106;7.004;2022-09-13T05:19:19;8.23;;;5.72;;
52564;SDS011;38460;53.106;7.004;2022-09-13T05:21:45;9.75;;;6.18;;
52564;SDS011;38460;53.106;7.004;2022-09-13T05:24:11;10.68;;;6.60;;
52564;SDS011;38460;53.106;7.004;2022-09-13T05:26:36;9.93;;;6.03;;
52564;SDS011;38460;53.106;7.004;2022-09-13T05:29:02;10.73;;;5.85;;
52564;SDS011;38460;53.106;7.004;2022-09-13T05:31:30;8.13;;;5.10;;
52564;SDS011;38460;53.106;7.004;2022-09-13T05:33:59;10.85;;;5.18;;
52564;SDS011;38460;53.106;7.004;2022-09-13T05:36:26;10.10;;;4.90;;
52564;SDS011;38460;53.106;7.004;2022-09-13T05:38:52;9.57;;;5.05;;
52564;SDS011;38460;53.106;7.004;2022-09-13T05:41:18;8.25;;;4.40;;
52564;SDS011;38460;53.106;7.004;2022-09-13T05:43:44;8.02;;;3.60;;
52564;SDS011;38460;53.106;7.004;2022-09-13T05:46:11;8.27;;;4.53;;
52564;SDS011;38460;53.106;7.004;2022-09-13T05:48:38;6.88;;;4.25;;
52564;SDS011;38460;53.106;7.004;2022-09-13T05:51:09;7.68;;;3.35;;
52564;SDS011;38460;53.106;7.004;2022-09-13T05:53:37;6.17;;;2.97;;
52564;SDS011;38460;53.106;7.004;2022-09-13T05:56:14;5.32;;;2.90;;
52564;SDS011;38460;53.106;7.004;2022-09-13T05:58:48;5.13;;;2.92;;
52564;SDS011;38460;53.106;7.004;2022-09-13T06:01:15;6.20;;;3.15;;
52564;SDS011;38460;53.106;7.004;2022-09-13T06:03:49;5.53;;;2.88;;
52564;SDS011;38460;53.106;7.004;2022-09-13T06:06:16;3.70;;;2.58;;
52564;SDS011;38460;53.106;7.004;2022-09-13T06:08:42;7.28;;;2.97;;
52564;SDS011;38460;53.106;7.004;2022-09-13T06:11:09;7.63;;;2.50;;
52564;SDS011;38460;53.106;7.004;2022-09-13T06:13:36;7.00;;;2.58;;
52564;SDS011;38460;53.106;7.004;2022-09-13T06:16:03;5.13;;;2.95;;
52564;SDS011;38460;53.106;7.004;2022-09-13T06:18:31;4.63;;;2.55;;
52564;SDS011;38460;53.106;7.004;2022-09-13T06:20:58;5.78;;;2.60;;
52564;SDS011;38460;53.106;7.004;2022-09-13T06:23:25;5.25;;;2.92;;
52564;SDS011;38460;53.106;7.004;2022-09-13T06:26:05;10.93;;;3.30;;
52564;SDS011;38460;53.106;7.004;2022-09-13T06:31:21;4.82;;;2.40;;
52564;SDS011;38460;53.106;7.004;2022-09-13T06:33:47;4.40;;;2.40;;
52564;SDS011;38460;53.106;7.004;2022-09-13T06:36:16;8.18;;;2.10;;
52564;SDS011;38460;53.106;7.004;2022-09-13T06:38:44;4.67;;;1.80;;
52564;SDS011;38460;53.106;7.004;2022-09-13T06:41:12;8.10;;;1.98;;
52564;SDS011;38460;53.106;7.004;2022-09-13T06:43:40;6.30;;;2.05;;
52564;SDS011;38460;53.106;7.004;2022-09-13T06:46:08;4.78;;;1.80;;
52564;SDS011;38460;53.106;7.004;2022-09-13T06:48:36;5.50;;;1.85;;
52564;SDS011;38460;53.106;7.004;2022-09-13T06:51:04;5.50;;;2.00;;
52564;SDS011;38460;53.106;7.004;2022-09-13T06:53:32;4.07;;;1.75;;
52564;SDS011;38460;53.106;7.004;2022-09-13T06:56:00;3.15;;;1.75;;
52564;SDS011;38460;53.106;7.004;2022-09-13T06:58:27;5.65;;;2.20;;
52564;SDS011;38460;53.106;7.004;2022-09-13T07:00:54;5.35;;;1.80;;
52564;SDS011;38460;53.106;7.004;2022-09-13T07:03:34;7.05;;;2.17;;
52564;SDS011;38460;53.106;7.004;2022-09-13T07:06:05;5.18;;;1.80;;
52564;SDS011;38460;53.106;7.004;2022-09-13T07:08:32;6.15;;;1.63;;
52564;SDS011;38460;53.106;7.004;2022-09-13T07:10:58;6.45;;;1.80;;
52564;SDS011;38460;53.106;7.004;2022-09-13T07:13:24;5.50;;;1.60;;
52564;SDS011;38460;53.106;7.004;2022-09-13T07:15:49;5.28;;;1.98;;
52564;SDS011;38460;53.106;7.004;2022-09-13T07:18:15;4.63;;;1.60;;
52564;SDS011;38460;53.106;7.004;2022-09-13T07:20:41;4.43;;;1.80;;
52564;SDS011;38460;53.106;7.004;2022-09-13T07:23:06;4.35;;;1.67;;
52564;SDS011;38460;53.106;7.004;2022-09-13T07:25:32;4.90;;;2.22;;
52564;SDS011;38460;53.106;7.004;2022-09-13T07:27:58;7.18;;;2.05;;
52564;SDS011;38460;53.106;7.004;2022-09-13T07:30:24;4.88;;;1.90;;
52564;SDS011;38460;53.106;7.004;2022-09-13T07:32:50;3.88;;;1.90;;
52564;SDS011;38460;53.106;7.004;2022-09-13T07:35:16;4.85;;;1.98;;
52564;SDS011;38460;53.106;7.004;2022-09-13T07:37:42;7.30;;;2.67;;
52564;SDS011;38460;53.106;7.004;2022-09-13T07:40:10;5.68;;;1.80;;
52564;SDS011;38460;53.106;7.004;2022-09-13T07:42:36;8.38;;;2.47;;
52564;SDS011;38460;53.106;7.004;2022-09-13T07:45:02;10.10;;;2.60;;
52564;SDS011;38460;53.106;7.004;2022-09-13T07:47:31;9.65;;;2.60;;
52564;SDS011;38460;53.106;7.004;2022-09-13T07:49:57;8.75;;;3.00;;
52564;SDS011;38460;53.106;7.004;2022-09-13T07:52:23;11.98;;;2.83;;
52564;SDS011;38460;53.106;7.004;2022-09-13T07:54:49;5.28;;;2.17;;
52564;SDS011;38460;53.106;7.004;2022-09-13T07:57:14;6.35;;;2.10;;
52564;SDS011;38460;53.106;7.004;2022-09-13T07:59:40;4.70;;;1.98;;
52564;SDS011;38460;53.106;7.004;2022-09-13T08:02:07;8.10;;;2.15;;
52564;SDS011;38460;53.106;7.004;2022-09-13T08:04:33;13.55;;;1.80;;
52564;SDS011;38460;53.106;7.004;2022-09-13T08:07:00;7.05;;;1.60;;
52564;SDS011;38460;53.106;7.004;2022-09-13T08:09:25;5.75;;;1.42;;
52564;SDS011;38460;53.106;7.004;2022-09-13T08:11:51;5.25;;;1.65;;
52564;SDS011;38460;53.106;7.004;2022-09-13T08:14:18;5.15;;;1.20;;
52564;SDS011;38460;53.106;7.004;2022-09-13T08:16:45;5.05;;;1.52;;
52564;SDS011;38460;53.106;7.004;2022-09-13T08:19:12;7.32;;;1.55;;
52564;SDS011;38460;53.106;7.004;2022-09-13T08:21:40;6.15;;;1.60;;
52564;SDS011;38460;53.106;7.004;2022-09-13T08:24:10;5.35;;;1.70;;
52564;SDS011;38460;53.106;7.004;2022-09-13T08:26:41;5.78;;;1.17;;
52564;SDS011;38460;53.106;7.004;2022-09-13T08:29:08;4.10;;;1.40;;
52564;SDS011;38460;53.106;7.004;2022-09-13T08:31:35;4.72;;;1.23;;
52564;SDS011;38460;53.106;7.004;2022-09-13T08:34:00;4.60;;;1.10;;
52564;SDS011;38460;53.106;7.004;2022-09-13T08:36:26;3.60;;;1.17;;
52564;SDS011;38460;53.106;7.004;2022-09-13T08:38:54;5.15;;;1.30;;
52564;SDS011;38460;53.106;7.004;2022-09-13T08:50:44;5.22;;;1.45;;
52564;SDS011;38460;53.106;7.004;2022-09-13T08:55:30;6.30;;;1.45;;
52564;SDS011;38460;53.106;7.004;2022-09-13T09:00:53;5.30;;;1.30;;
52564;SDS011;38460;53.106;7.004;2022-09-13T09:03:55;4.88;;;1.42;;
52564;SDS011;38460;53.106;7.004;2022-09-13T09:06:35;14.90;;;1.88;;
52564;SDS011;38460;53.106;7.004;2022-09-13T09:09:09;4.50;;;1.30;;
52564;SDS011;38460;53.106;7.004;2022-09-13T09:11:44;4.30;;;1.40;;
52564;SDS011;38460;53.106;7.004;2022-09-13T09:16:46;4.05;;;1.17;;
52564;SDS011;38460;53.106;7.004;2022-09-13T09:19:20;4.38;;;1.15;;
52564;SDS011;38460;53.106;7.004;2022-09-13T09:21:55;3.63;;;1.42;;
52564;SDS011;38460;53.106;7.004;2022-09-13T09:24:22;3.65;;;1.20;;
52564;SDS011;38460;53.106;7.004;2022-09-13T09:26:49;6.55;;;1.30;;
52564;SDS011;38460;53.106;7.004;2022-09-13T09:29:20;5.00;;;1.30;;
52564;SDS011;38460;53.106;7.004;2022-09-13T09:34:47;3.70;;;0.90;;
52564;SDS011;38460;53.106;7.004;2022-09-13T09:37:19;4.45;;;1.13;;
52564;SDS011;38460;53.106;7.004;2022-09-13T09:39:49;4.00;;;1.42;;
52564;SDS011;38460;53.106;7.004;2022-09-13T09:42:21;4.55;;;1.40;;
52564;SDS011;38460;53.106;7.004;2022-09-13T09:44:52;4.40;;;1.08;;
52564;SDS011;38460;53.106;7.004;2022-09-13T09:50:37;5.85;;;1.10;;
52564;SDS011;38460;53.106;7.004;2022-09-13T09:53:11;3.28;;;0.93;;
52564;SDS011;38460;53.106;7.004;2022-09-13T09:58:41;4.00;;;1.48;;
52564;SDS011;38460;53.106;7.004;2022-09-13T10:03:39;4.50;;;1.00;;
52564;SDS011;38460;53.106;7.004;2022-09-13T10:06:05;4.82;;;1.08;;
52564;SDS011;38460;53.106;7.004;2022-09-13T10:08:34;4.78;;;1.17;;
52564;SDS011;38460;53.106;7.004;2022-09-13T10:11:02;6.57;;;1.10;;
52564;SDS011;38460;53.106;7.004;2022-09-13T10:13:29;4.55;;;1.20;;
52564;SDS011;38460;53.106;7.004;2022-09-13T10:16:00;3.88;;;1.35;;
52564;SDS011;38460;53.106;7.004;2022-09-13T10:18:29;4.38;;;1.27;;
52564;SDS011;38460;53.106;7.004;2022-09-13T10:21:04;4.07;;;1.20;;
52564;SDS011;38460;53.106;7.004;2022-09-13T10:23:33;4.28;;;1.10;;
52564;SDS011;38460;53.106;7.004;2022-09-13T10:28:34;4.43;;;1.38;;
52564;SDS011;38460;53.106;7.004;2022-09-13T10:31:06;5.85;;;1.33;;
52564;SDS011;38460;53.106;7.004;2022-09-13T10:33:38;2.95;;;1.10;;
52564;SDS011;38460;53.106;7.004;2022-09-13T10:36:14;5.45;;;1.08;;
52564;SDS011;38460;53.106;7.004;2022-09-13T10:39:01;3.20;;;1.15;;
52564;SDS011;38460;53.106;7.004;2022-09-13T10:41:34;5.18;;;1.10;;
52564;SDS011;38460;53.106;7.004;2022-09-13T10:44:08;6.57;;;1.48;;
52564;SDS011;38460;53.106;7.004;2022-09-13T10:46:51;4.97;;;1.20;;
52564;SDS011;38460;53.106;7.004;2022-09-13T11:00:11;3.88;;;1.65;;
52564;SDS011;38460;53.106;7.004;2022-09-13T11:10:43;5.57;;;1.10;;
52564;SDS011;38460;53.106;7.004;2022-09-13T11:13:25;5.25;;;1.40;;
52564;SDS011;38460;53.106;7.004;2022-09-13T11:29:38;6.05;;;1.15;;
52564;SDS011;38460;53.106;7.004;2022-09-13T11:46:04;3.10;;;0.77;;
52564;SDS011;38460;53.106;7.004;2022-09-13T11:56:59;3.25;;;1.30;;
52564;SDS011;38460;53.106;7.004;2022-09-13T12:02:13;4.13;;;1.40;;
52564;SDS011;38460;53.106;7.004;2022-09-13T12:04:48;2.95;;;1.10;;
52564;SDS011;38460;53.106;7.004;2022-09-13T12:07:24;3.67;;;0.88;;
52564;SDS011;38460;53.106;7.004;2022-09-13T12:10:06;4.30;;;1.40;;
52564;SDS011;38460;53.106;7.004;2022-09-13T12:12:40;4.60;;;1.50;;
52564;SDS011;38460;53.106;7.004;2022-09-13T12:15:22;5.60;;;1.10;;
52564;SDS011;38460;53.106;7.004;2022-09-13T12:18:18;7.43;;;1.25;;
52564;SDS011;38460;53.106;7.004;2022-09-13T12:21:07;4.13;;;1.00;;
52564;SDS011;38460;53.106;7.004;2022-09-13T12:23:42;2.17;;;1.02;;
52564;SDS011;38460;53.106;7.004;2022-09-13T12:26:25;4.93;;;1.33;;
52564;SDS011;38460;53.106;7.004;2022-09-13T12:29:03;7.55;;;1.48;;
52564;SDS011;38460;53.106;7.004;2022-09-13T12:31:39;1.98;;;0.73;;
52564;SDS011;38460;53.106;7.004;2022-09-13T12:34:06;3.42;;;0.90;;
52564;SDS011;38460;53.106;7.004;2022-09-13T12:55:19;4.97;;;1.27;;
52564;SDS011;38460;53.106;7.004;2022-09-13T13:01:01;4.70;;;1.38;;
52564;SDS011;38460;53.106;7.004;2022-09-13T13:03:34;4.88;;;1.73;;
52564;SDS011;38460;53.106;7.004;2022-09-13T13:06:14;2.78;;;0.95;;
52564;SDS011;38460;53.106;7.004;2022-09-13T13:08:50;4.50;;;1.23;;
52564;SDS011;38460;53.106;7.004;2022-09-13T13:11:22;5.50;;;1.77;;
52564;SDS011;38460;53.106;7.004;2022-09-13T13:13:57;4.20;;;1.23;;
52564;SDS011;38460;53.106;7.004;2022-09-13T13:16:33;5.10;;;1.35;;
52564;SDS011;38460;53.106;7.004;2022-09-13T13:21:54;7.80;;;1.20;;
52564;SDS011;38460;53.106;7.004;2022-09-13T13:42:49;4.22;;;1.02;;
52564;SDS011;38460;53.106;7.004;2022-09-13T13:45:19;6.35;;;1.50;;
52564;SDS011;38460;53.106;7.004;2022-09-13T13:48:50;4.57;;;1.30;;
52564;SDS011;38460;53.106;7.004;2022-09-13T13:53:36;4.40;;;1.40;;
52564;SDS011;38460;53.106;7.004;2022-09-13T13:56:05;3.28;;;1.20;;
52564;SDS011;38460;53.106;7.004;2022-09-13T13:58:46;5.60;;;1.40;;
52564;SDS011;38460;53.106;7.004;2022-09-13T14:01:20;2.88;;;1.30;;
52564;SDS011;38460;53.106;7.004;2022-09-13T14:06:23;5.47;;;1.33;;
52564;SDS011;38460;53.106;7.004;2022-09-13T14:08:58;8.60;;;1.35;;
52564;SDS011;38460;53.106;7.004;2022-09-13T14:19:58;4.65;;;1.20;;
52564;SDS011;38460;53.106;7.004;2022-09-13T14:22:28;7.60;;;1.20;;
52564;SDS011;38460;53.106;7.004;2022-09-13T14:25:11;6.28;;;1.20;;
52564;SDS011;38460;53.106;7.004;2022-09-13T14:27:47;7.53;;;1.80;;
52564;SDS011;38460;53.106;7.004;2022-09-13T14:30:21;3.35;;;1.33;;
52564;SDS011;38460;53.106;7.004;2022-09-13T14:32:56;5.20;;;1.60;;
52564;SDS011;38460;53.106;7.004;2022-09-13T14:40:47;6.95;;;1.73;;
52564;SDS011;38460;53.106;7.004;2022-09-13T14:43:14;3.20;;;1.05;;
52564;SDS011;38460;53.106;7.004;2022-09-13T14:45:43;3.72;;;1.35;;
52564;SDS011;38460;53.106;7.004;2022-09-13T14:48:19;6.40;;;1.55;;
52564;SDS011;38460;53.106;7.004;2022-09-13T14:53:21;6.78;;;1.83;;
52564;SDS011;38460;53.106;7.004;2022-09-13T14:56:25;5.07;;;1.42;;
52564;SDS011;38460;53.106;7.004;2022-09-13T14:59:24;7.30;;;1.20;;
52564;SDS011;38460;53.106;7.004;2022-09-13T15:01:53;4.30;;;1.55;;
52564;SDS011;38460;53.106;7.004;2022-09-13T15:04:19;4.53;;;1.13;;
52564;SDS011;38460;53.106;7.004;2022-09-13T15:06:48;6.80;;;1.58;;
52564;SDS011;38460;53.106;7.004;2022-09-13T15:09:31;6.75;;;1.30;;
52564;SDS011;38460;53.106;7.004;2022-09-13T15:11:59;3.70;;;1.10;;
52564;SDS011;38460;53.106;7.004;2022-09-13T15:14:33;11.80;;;1.38;;
52564;SDS011;38460;53.106;7.004;2022-09-13T15:17:06;4.50;;;1.13;;
52564;SDS011;38460;53.106;7.004;2022-09-13T15:19:39;4.68;;;1.17;;
52564;SDS011;38460;53.106;7.004;2022-09-13T15:22:22;4.85;;;1.08;;
52564;SDS011;38460;53.106;7.004;2022-09-13T15:24:54;4.70;;;1.27;;
52564;SDS011;38460;53.106;7.004;2022-09-13T15:32:22;5.22;;;1.33;;
52564;SDS011;38460;53.106;7.004;2022-09-13T15:35:42;5.13;;;1.50;;
52564;SDS011;38460;53.106;7.004;2022-09-13T15:41:34;5.78;;;1.00;;
52564;SDS011;38460;53.106;7.004;2022-09-13T15:43:34;2.88;;;1.05;;
52564;SDS011;38460;53.106;7.004;2022-09-13T15:46:00;4.43;;;1.27;;
52564;SDS011;38460;53.106;7.004;2022-09-13T15:48:28;4.75;;;0.90;;
52564;SDS011;38460;53.106;7.004;2022-09-13T15:51:09;3.38;;;1.20;;
52564;SDS011;38460;53.106;7.004;2022-09-13T15:53:39;3.70;;;1.02;;
52564;SDS011;38460;53.106;7.004;2022-09-13T15:56:07;4.20;;;1.30;;
52564;SDS011;38460;53.106;7.004;2022-09-13T15:58:36;3.15;;;0.90;;
52564;SDS011;38460;53.106;7.004;2022-09-13T16:01:02;5.03;;;1.20;;
52564;SDS011;38460;53.106;7.004;2022-09-13T16:03:29;4.03;;;1.42;;
52564;SDS011;38460;53.106;7.004;2022-09-13T16:05:55;2.95;;;1.17;;
52564;SDS011;38460;53.106;7.004;2022-09-13T16:08:22;4.00;;;0.90;;
52564;SDS011;38460;53.106;7.004;2022-09-13T16:10:47;3.85;;;1.15;;
52564;SDS011;38460;53.106;7.004;2022-09-13T16:13:13;2.42;;;1.05;;
52564;SDS011;38460;53.106;7.004;2022-09-13T16:15:39;2.25;;;1.00;;
52564;SDS011;38460;53.106;7.004;2022-09-13T16:18:05;7.32;;;1.58;;
52564;SDS011;38460;53.106;7.004;2022-09-13T16:20:31;7.30;;;1.70;;
52564;SDS011;38460;53.106;7.004;2022-09-13T16:22:57;3.47;;;1.05;;
52564;SDS011;38460;53.106;7.004;2022-09-13T16:25:22;5.53;;;1.17;;
52564;SDS011;38460;53.106;7.004;2022-09-13T16:27:48;4.15;;;1.20;;
52564;SDS011;38460;53.106;7.004;2022-09-13T16:30:16;6.93;;;1.27;;
52564;SDS011;38460;53.106;7.004;2022-09-13T16:32:43;5.13;;;1.20;;
52564;SDS011;38460;53.106;7.004;2022-09-13T16:35:10;3.60;;;1.00;;
52564;SDS011;38460;53.106;7.004;2022-09-13T16:37:37;3.25;;;1.27;;
52564;SDS011;38460;53.106;7.004;2022-09-13T16:40:06;6.10;;;1.40;;
52564;SDS011;38460;53.106;7.004;2022-09-13T16:42:34;3.90;;;1.08;;
52564;SDS011;38460;53.106;7.004;2022-09-13T16:45:00;4.90;;;1.35;;
52564;SDS011;38460;53.106;7.004;2022-09-13T16:47:25;5.57;;;1.65;;
52564;SDS011;38460;53.106;7.004;2022-09-13T16:49:51;2.72;;;1.00;;
52564;SDS011;38460;53.106;7.004;2022-09-13T16:52:18;3.05;;;0.77;;
52564;SDS011;38460;53.106;7.004;2022-09-13T16:54:43;3.03;;;0.80;;
52564;SDS011;38460;53.106;7.004;2022-09-13T16:57:13;6.53;;;1.02;;
52564;SDS011;38460;53.106;7.004;2022-09-13T16:59:39;4.00;;;0.95;;
52564;SDS011;38460;53.106;7.004;2022-09-13T17:02:06;3.95;;;0.90;;
52564;SDS011;38460;53.106;7.004;2022-09-13T17:04:35;5.43;;;1.10;;
52564;SDS011;38460;53.106;7.004;2022-09-13T17:07:00;3.63;;;1.15;;
52564;SDS011;38460;53.106;7.004;2022-09-13T17:09:28;4.18;;;1.15;;
52564;SDS011;38460;53.106;7.004;2022-09-13T17:11:55;4.30;;;1.10;;
52564;SDS011;38460;53.106;7.004;2022-09-13T17:14:21;2.78;;;1.00;;
52564;SDS011;38460;53.106;7.004;2022-09-13T17:16:48;3.03;;;0.98;;
52564;SDS011;38460;53.106;7.004;2022-09-13T17:19:20;4.18;;;1.23;;
52564;SDS011;38460;53.106;7.004;2022-09-13T17:21:52;4.53;;;1.00;;
52564;SDS011;38460;53.106;7.004;2022-09-13T17:24:21;4.72;;;1.08;;
52564;SDS011;38460;53.106;7.004;2022-09-13T17:26:48;4.03;;;1.15;;
52564;SDS011;38460;53.106;7.004;2022-09-13T17:29:14;4.13;;;0.90;;
52564;SDS011;38460;53.106;7.004;2022-09-13T17:31:39;2.95;;;1.00;;
52564;SDS011;38460;53.106;7.004;2022-09-13T17:34:07;6.07;;;0.90;;
52564;SDS011;38460;53.106;7.004;2022-09-13T17:36:34;3.90;;;1.50;;
52564;SDS011;38460;53.106;7.004;2022-09-13T17:39:00;4.63;;;1.20;;
52564;SDS011;38460;53.106;7.004;2022-09-13T17:41:26;5.07;;;1.45;;
52564;SDS011;38460;53.106;7.004;2022-09-13T17:43:52;3.05;;;1.10;;
52564;SDS011;38460;53.106;7.004;2022-09-13T17:46:19;2.33;;;1.17;;
52564;SDS011;38460;53.106;7.004;2022-09-13T17:48:49;4.30;;;1.30;;
52564;SDS011;38460;53.106;7.004;2022-09-13T17:51:21;4.35;;;1.17;;
52564;SDS011;38460;53.106;7.004;2022-09-13T17:56:17;3.75;;;1.00;;
52564;SDS011;38460;53.106;7.004;2022-09-13T17:58:44;4.35;;;1.15;;
52564;SDS011;38460;53.106;7.004;2022-09-13T18:01:10;3.33;;;1.30;;
52564;SDS011;38460;53.106;7.004;2022-09-13T18:03:37;3.35;;;1.10;;
52564;SDS011;38460;53.106;7.004;2022-09-13T18:06:04;5.93;;;1.40;;
52564;SDS011;38460;53.106;7.004;2022-09-13T18:08:33;2.95;;;1.38;;
52564;SDS011;38460;53.106;7.004;2022-09-13T18:11:04;2.22;;;0.80;;
52564;SDS011;38460;53.106;7.004;2022-09-13T18:13:32;2.72;;;1.20;;
52564;SDS011;38460;53.106;7.004;2022-09-13T18:16:16;4.03;;;1.17;;
52564;SDS011;38460;53.106;7.004;2022-09-13T18:18:48;3.53;;;1.20;;
52564;SDS011;38460;53.106;7.004;2022-09-13T18:21:14;4.57;;;1.20;;
52564;SDS011;38460;53.106;7.004;2022-09-13T18:23:49;4.60;;;1.17;;
52564;SDS011;38460;53.106;7.004;2022-09-13T18:26:18;12.70;;;1.27;;
52564;SDS011;38460;53.106;7.004;2022-09-13T18:28:51;3.35;;;1.05;;
52564;SDS011;38460;53.106;7.004;2022-09-13T18:31:20;4.10;;;1.30;;
52564;SDS011;38460;53.106;7.004;2022-09-13T18:33:46;4.63;;;1.13;;
52564;SDS011;38460;53.106;7.004;2022-09-13T18:36:13;2.90;;;0.80;;
52564;SDS011;38460;53.106;7.004;2022-09-13T18:38:41;3.55;;;1.05;;
52564;SDS011;38460;53.106;7.004;2022-09-13T18:41:12;5.78;;;1.50;;
52564;SDS011;38460;53.106;7.004;2022-09-13T18:43:41;5.18;;;1.13;;
52564;SDS011;38460;53.106;7.004;2022-09-13T18:46:09;3.47;;;1.00;;
52564;SDS011;38460;53.106;7.004;2022-09-13T18:48:37;4.20;;;1.00;;
52564;SDS011;38460;53.106;7.004;2022-09-13T18:51:07;3.45;;;1.98;;
52564;SDS011;38460;53.106;7.004;2022-09-13T18:53:37;13.43;;;8.55;;